createdAt,value
2019-04-07T00:01:01.365Z,24.00
2019-04-07T00:03:34.582Z,23.27
2019-04-07T00:06:07.491Z,22.87
2019-04-07T00:08:40.832Z,22.57
2019-04-07T00:11:13.959Z,24.10
2019-04-07T00:13:47.051Z,22.70
2019-04-07T00:16:20.156Z,23.87
2019-04-07T00:18:53.513Z,22.23
2019-04-07T00:21:26.345Z,22.17
2019-04-07T00:24:01.509Z,23.50
2019-04-07T00:26:34.570Z,22.70
2019-04-07T00:29:07.402Z,23.60
2019-04-07T00:31:40.226Z,25.00
2019-04-07T00:34:13.047Z,22.97
2019-04-07T00:36:46.874Z,24.47
2019-04-07T00:39:20.686Z,23.00
2019-04-07T00:41:53.471Z,25.90
2019-04-07T00:44:25.977Z,24.90
2019-04-07T00:46:58.687Z,26.90
2019-04-07T00:49:31.226Z,26.00
2019-04-07T00:52:05.090Z,25.07
2019-04-07T00:54:38.066Z,25.90
2019-04-07T00:57:10.963Z,25.07
2019-04-07T00:59:44.027Z,24.87
2019-04-07T01:02:17.116Z,25.83
2019-04-07T01:04:49.748Z,25.07
2019-04-07T01:07:22.295Z,24.67
2019-04-07T01:09:55.275Z,25.67
2019-04-07T01:12:28.164Z,26.53
2019-04-07T01:15:00.771Z,24.90
2019-04-07T01:17:34.781Z,26.37
2019-04-07T01:20:10.568Z,26.60
2019-04-07T01:22:44.205Z,25.53
2019-04-07T01:25:16.892Z,24.53
2019-04-07T01:27:49.936Z,25.70
2019-04-07T01:30:22.989Z,24.93
2019-04-07T01:32:56.357Z,24.13
2019-04-07T01:35:29.121Z,23.93
2019-04-07T01:38:02.981Z,25.67
2019-04-07T01:40:35.575Z,26.97
2019-04-07T01:43:16.220Z,27.40
2019-04-07T01:45:55.075Z,27.43
2019-04-07T01:48:29.298Z,26.30
2019-04-07T01:51:03.331Z,26.60
2019-04-07T01:53:53.144Z,28.13
2019-04-07T01:56:36.264Z,27.57
2019-04-07T01:59:13.646Z,36.57
2019-04-07T02:02:04.698Z,27.80
2019-04-07T02:04:43.572Z,28.50
2019-04-07T02:07:27.281Z,27.50
2019-04-07T02:10:08.726Z,26.97
2019-04-07T02:12:42.946Z,27.57
2019-04-07T02:15:33.111Z,29.00
2019-04-07T02:18:16.391Z,28.27
2019-04-07T02:21:04.320Z,28.77
2019-04-07T02:23:43.713Z,30.77
2019-04-07T02:26:28.073Z,31.17
2019-04-07T02:29:06.653Z,29.77
2019-04-07T02:31:40.094Z,29.97
2019-04-07T02:34:16.067Z,30.43
2019-04-07T02:36:56.381Z,29.83
2019-04-07T02:39:34.717Z,31.40
2019-04-07T02:42:07.166Z,30.03
2019-04-07T02:44:41.387Z,28.80
2019-04-07T02:47:15.977Z,31.13
2019-04-07T02:50:03.282Z,31.90
2019-04-07T02:52:37.676Z,32.90
2019-04-07T02:55:13.092Z,34.27
2019-04-07T02:57:47.822Z,31.03
2019-04-07T03:00:22.876Z,30.27
2019-04-07T03:02:57.977Z,31.37
2019-04-07T03:05:38.877Z,29.97
2019-04-07T03:08:18.410Z,30.70
2019-04-07T03:11:02.172Z,35.70
2019-04-07T03:13:54.074Z,37.77
2019-04-07T03:16:33.111Z,37.40
2019-04-07T03:19:23.701Z,30.77
2019-04-07T03:22:08.480Z,33.77
2019-04-07T03:24:42.747Z,36.17
2019-04-07T03:27:33.835Z,36.70
2019-04-07T03:30:11.483Z,37.27
2019-04-07T03:32:53.270Z,34.80
2019-04-07T03:35:43.754Z,33.40
2019-04-07T03:38:33.660Z,32.27
2019-04-07T03:41:23.969Z,31.93
2019-04-07T03:44:03.863Z,37.93
2019-04-07T03:46:44.057Z,40.17
2019-04-07T03:49:35.129Z,41.10
2019-04-07T03:52:12.597Z,42.47
2019-04-07T03:54:57.188Z,37.60
2019-04-07T03:57:45.048Z,34.97
2019-04-07T04:01:08.522Z,32.53
2019-04-07T04:03:46.029Z,36.67
2019-04-07T04:06:19.408Z,39.77
2019-04-07T04:08:56.896Z,40.27
2019-04-07T04:11:32.292Z,37.27
2019-04-07T04:14:23.811Z,32.50
2019-04-07T04:16:57.498Z,33.03
2019-04-07T04:19:30.546Z,35.17
2019-04-07T04:22:03.989Z,32.93
2019-04-07T04:24:36.835Z,33.00
2019-04-07T04:27:09.393Z,35.77
2019-04-07T04:29:43.442Z,37.43
2019-04-07T04:32:16.699Z,39.07
2019-04-07T04:34:49.661Z,34.63
2019-04-07T04:37:37.727Z,35.27
2019-04-07T04:39:57.387Z,34.50
2019-04-07T04:42:31.167Z,32.30
2019-04-07T04:45:04.282Z,33.70
2019-04-07T04:47:37.641Z,34.77
2019-04-07T04:50:12.875Z,33.30
2019-04-07T04:52:46.898Z,31.50
2019-04-07T04:55:20.873Z,34.50
2019-04-07T04:57:54.500Z,35.67
2019-04-07T05:00:27.213Z,34.77
2019-04-07T05:03:00.952Z,34.13
2019-04-07T05:05:34.465Z,35.43
2019-04-07T05:08:07.220Z,35.90
2019-04-07T05:10:39.716Z,37.10
2019-04-07T05:13:12.495Z,35.33
2019-04-07T05:15:45.630Z,36.97
2019-04-07T05:18:18.246Z,39.50
2019-04-07T05:20:51.471Z,38.27
2019-04-07T05:23:25.253Z,36.83
2019-04-07T05:25:58.278Z,33.47
2019-04-07T05:28:33.729Z,34.93
2019-04-07T05:31:05.666Z,33.10
2019-04-07T05:33:38.462Z,34.90
2019-04-07T05:36:11.310Z,37.20
2019-04-07T05:38:44.561Z,35.47
2019-04-07T05:41:17.371Z,36.00
2019-04-07T05:43:50.280Z,34.97
2019-04-07T05:46:23.818Z,34.83
2019-04-07T05:48:56.653Z,35.73
2019-04-07T05:51:30.060Z,34.37
2019-04-07T05:54:03.627Z,33.93
2019-04-07T05:56:36.891Z,33.23
2019-04-07T05:59:12.006Z,32.63
2019-04-07T06:01:44.548Z,33.30
2019-04-07T06:04:19.159Z,32.47
2019-04-07T06:06:54.862Z,31.93
2019-04-07T06:09:26.409Z,29.73
2019-04-07T06:11:59.872Z,32.43
2019-04-07T06:14:32.636Z,32.90
2019-04-07T06:17:06.409Z,32.87
2019-04-07T06:19:41.206Z,30.90
2019-04-07T06:22:13.370Z,31.30
2019-04-07T06:24:46.121Z,30.70
2019-04-07T06:27:18.972Z,30.40
2019-04-07T06:29:52.191Z,33.57
2019-04-07T06:32:26.722Z,33.63
2019-04-07T06:34:59.531Z,30.87
2019-04-07T06:37:33.063Z,30.53
2019-04-07T06:40:06.929Z,30.73
2019-04-07T06:42:40.482Z,29.50
2019-04-07T06:45:15.086Z,29.53
2019-04-07T06:47:53.422Z,30.30
2019-04-07T06:50:48.613Z,29.53
2019-04-07T06:53:18.613Z,28.93
2019-04-07T06:56:08.921Z,29.47
2019-04-07T06:59:00.321Z,28.80
2019-04-07T07:01:38.552Z,28.70
2019-04-07T07:04:29.107Z,29.67
2019-04-07T07:07:07.317Z,27.90
2019-04-07T07:09:51.937Z,29.17
2019-04-07T07:12:38.710Z,28.57
2019-04-07T07:15:25.816Z,30.00
2019-04-07T07:18:10.254Z,28.17
2019-04-07T07:20:51.620Z,27.90
2019-04-07T07:23:28.647Z,28.77
2019-04-07T07:26:03.146Z,28.87
2019-04-07T07:28:36.047Z,27.90
2019-04-07T07:31:10.466Z,28.47
2019-04-07T07:33:43.972Z,29.40
2019-04-07T07:36:20.729Z,27.97
2019-04-07T07:38:59.998Z,28.63
2019-04-07T07:41:26.331Z,27.90
2019-04-07T07:44:03.189Z,26.60
2019-04-07T07:46:34.657Z,28.07
2019-04-07T07:49:07.582Z,28.60
2019-04-07T07:51:40.592Z,27.30
2019-04-07T07:54:15.964Z,25.40
2019-04-07T07:56:51.165Z,25.47
2019-04-07T07:59:24.065Z,26.03
2019-04-07T08:01:57.652Z,28.40
2019-04-07T08:04:30.613Z,25.70
2019-04-07T08:07:03.335Z,27.00
2019-04-07T08:09:35.885Z,26.80
2019-04-07T08:12:09.601Z,27.30
2019-04-07T08:14:43.749Z,23.97
2019-04-07T08:17:16.225Z,26.17
2019-04-07T08:19:49.261Z,26.37
2019-04-07T08:22:31.319Z,24.40
2019-04-07T08:24:56.666Z,28.60
2019-04-07T08:27:31.715Z,24.50
2019-04-07T08:30:09.949Z,23.40
2019-04-07T08:32:39.897Z,22.77
2019-04-07T08:35:13.101Z,23.73
2019-04-07T08:37:47.876Z,23.57
2019-04-07T08:40:21.503Z,21.80
2019-04-07T08:42:54.121Z,23.47
2019-04-07T08:45:29.977Z,22.60
2019-04-07T08:48:01.227Z,22.07
2019-04-07T08:50:34.271Z,22.20
2019-04-07T08:53:10.335Z,22.50
2019-04-07T08:55:42.778Z,19.80
2019-04-07T08:58:25.167Z,21.97
2019-04-07T09:00:53.738Z,18.07
2019-04-07T09:03:26.576Z,18.17
2019-04-07T09:05:59.792Z,16.20
2019-04-07T09:08:34.707Z,15.90
2019-04-07T09:11:08.995Z,16.20
2019-04-07T09:13:44.100Z,16.23
2019-04-07T09:16:25.050Z,16.43
2019-04-07T09:19:08.366Z,15.48
2019-04-07T09:21:59.141Z,16.80
2019-04-07T09:24:33.555Z,17.52
2019-04-07T09:27:08.101Z,14.90
2019-04-07T09:29:53.391Z,16.17
2019-04-07T09:32:29.078Z,16.50
2019-04-07T09:35:22.878Z,16.17
2019-04-07T09:38:14.363Z,18.25
2019-04-07T09:40:48.790Z,18.53
2019-04-07T09:43:32.617Z,17.05
2019-04-07T09:46:14.714Z,20.47
2019-04-07T09:49:07.809Z,19.93
2019-04-07T09:51:41.529Z,19.10
2019-04-07T09:54:19.186Z,17.27
2019-04-07T09:57:09.654Z,19.62
2019-04-07T09:59:56.881Z,17.67
2019-04-07T10:02:34.507Z,29.70
2019-04-07T10:05:11.143Z,20.57
2019-04-07T10:08:00.408Z,18.45
2019-04-07T10:10:51.175Z,18.23
2019-04-07T10:13:25.415Z,17.82
2019-04-07T10:16:16.477Z,16.97
2019-04-07T10:18:50.976Z,17.90
2019-04-07T10:21:26.422Z,18.07
2019-04-07T10:24:17.010Z,17.50
2019-04-07T10:26:51.843Z,16.27
2019-04-07T10:29:41.265Z,17.52
2019-04-07T10:32:34.040Z,16.07
2019-04-07T10:35:12.685Z,16.15
2019-04-07T10:38:00.709Z,15.30
2019-04-07T10:40:40.038Z,16.23
2019-04-07T10:43:15.458Z,18.25
2019-04-07T10:45:50.492Z,17.85
2019-04-07T10:48:41.030Z,17.23
2019-04-07T10:51:30.876Z,15.88
2019-04-07T10:54:14.330Z,18.27
2019-04-07T10:56:51.748Z,18.12
2019-04-07T10:59:32.208Z,16.77
2019-04-07T11:02:09.111Z,17.32
2019-04-07T11:04:45.048Z,16.62
2019-04-07T11:07:34.005Z,17.37
2019-04-07T11:10:15.905Z,16.07
2019-04-07T11:12:58.297Z,16.62
2019-04-07T11:15:39.239Z,16.52
2019-04-07T11:18:20.669Z,16.70
2019-04-07T11:21:02.166Z,17.27
2019-04-07T11:23:53.405Z,17.87
2019-04-07T11:26:25.990Z,17.40
2019-04-07T11:29:04.660Z,19.48
2019-04-07T11:31:39.045Z,17.20
2019-04-07T11:34:16.215Z,17.20
2019-04-07T11:36:57.696Z,17.87
2019-04-07T11:39:35.159Z,16.57
2019-04-07T11:42:10.040Z,18.30
2019-04-07T11:44:47.417Z,16.85
2019-04-07T11:47:26.230Z,16.67
2019-04-07T11:49:59.263Z,16.62
2019-04-07T11:52:36.556Z,16.75
2019-04-07T11:55:31.278Z,18.80
2019-04-07T11:58:30.891Z,16.67
2019-04-07T12:01:12.775Z,18.17
2019-04-07T12:03:55.804Z,16.50
2019-04-07T12:06:31.482Z,16.35
2019-04-07T12:09:09.021Z,17.00
2019-04-07T12:11:41.857Z,15.32
2019-04-07T12:14:22.564Z,16.02
2019-04-07T12:17:13.769Z,16.42
2019-04-07T12:20:05.335Z,15.00
2019-04-07T12:22:55.612Z,15.30
2019-04-07T12:25:33.337Z,16.48
2019-04-07T12:28:09.779Z,16.90
2019-04-07T12:30:48.081Z,15.63
2019-04-07T12:33:22.948Z,15.18
2019-04-07T12:36:09.821Z,14.80
2019-04-07T12:38:46.716Z,15.13
2019-04-07T12:41:27.742Z,14.65
2019-04-07T12:44:09.416Z,14.60
2019-04-07T12:46:44.246Z,13.55
2019-04-07T12:49:21.530Z,13.60
2019-04-07T12:52:04.300Z,14.38
2019-04-07T12:54:55.773Z,14.85
2019-04-07T12:57:30.805Z,16.05
2019-04-07T13:00:10.286Z,16.02
2019-04-07T13:02:54.376Z,17.12
2019-04-07T13:05:36.856Z,15.93
2019-04-07T13:08:14.533Z,16.23
2019-04-07T13:10:49.409Z,15.60
2019-04-07T13:13:42.224Z,12.55
2019-04-07T13:16:21.429Z,15.98
2019-04-07T13:19:13.142Z,13.95
2019-04-07T13:21:58.643Z,13.78
2019-04-07T13:24:48.806Z,12.68
2019-04-07T13:27:23.546Z,14.55
2019-04-07T13:29:56.442Z,14.40
2019-04-07T13:32:41.681Z,16.15
2019-04-07T13:35:22.255Z,12.98
2019-04-07T13:38:09.420Z,12.85
2019-04-07T13:40:46.759Z,12.40
2019-04-07T13:43:19.377Z,12.53
2019-04-07T13:46:04.261Z,12.43
2019-04-07T13:48:48.597Z,11.20
2019-04-07T13:51:27.966Z,11.95
2019-04-07T13:54:08.208Z,12.68
2019-04-07T13:56:59.053Z,12.55
2019-04-07T13:59:49.651Z,12.07
2019-04-07T14:02:35.948Z,11.38
2019-04-07T14:05:11.576Z,11.28
2019-04-07T14:07:57.986Z,10.70
2019-04-07T14:10:44.986Z,11.33
2019-04-07T14:13:19.990Z,10.58
2019-04-07T14:15:53.167Z,12.33
2019-04-07T14:18:45.072Z,10.48
2019-04-07T14:21:22.796Z,9.50
2019-04-07T14:24:01.538Z,8.23
2019-04-07T14:26:38.819Z,9.60
2019-04-07T14:29:18.447Z,11.55
2019-04-07T14:31:59.801Z,9.10
2019-04-07T14:34:50.949Z,10.40
2019-04-07T14:37:36.242Z,10.72
2019-04-07T14:40:11.881Z,11.60
2019-04-07T14:42:47.063Z,11.53
2019-04-07T14:45:23.193Z,10.85
2019-04-07T14:47:58.945Z,10.38
2019-04-07T14:50:49.866Z,11.33
2019-04-07T14:53:34.390Z,10.80
2019-04-07T14:56:22.631Z,10.48
2019-04-07T14:59:09.295Z,10.63
2019-04-07T15:01:50.155Z,10.95
2019-04-07T15:04:25.596Z,10.95
2019-04-07T15:07:10.061Z,11.60
2019-04-07T15:09:48.055Z,10.23
2019-04-07T15:12:26.051Z,10.85
2019-04-07T15:14:58.956Z,10.93
2019-04-07T15:17:32.942Z,11.85
2019-04-07T15:20:12.333Z,11.15
2019-04-07T15:22:44.816Z,12.33
2019-04-07T15:25:18.303Z,11.05
2019-04-07T15:27:52.767Z,11.35
2019-04-07T15:30:26.446Z,14.10
2019-04-07T15:33:01.599Z,12.15
2019-04-07T15:35:34.128Z,16.07
2019-04-07T15:38:07.356Z,16.52
2019-04-07T15:40:40.731Z,12.75
2019-04-07T15:43:13.521Z,13.22
2019-04-07T15:45:48.612Z,12.10
2019-04-07T15:48:25.786Z,11.88
2019-04-07T15:51:00.587Z,10.95
2019-04-07T15:53:30.953Z,11.85
2019-04-07T15:56:06.494Z,12.10
2019-04-07T15:58:38.301Z,11.95
2019-04-07T16:01:11.790Z,11.83
2019-04-07T16:03:47.621Z,10.60
2019-04-07T16:06:19.551Z,11.15
2019-04-07T16:08:53.142Z,11.88
2019-04-07T16:11:28.320Z,11.15
2019-04-07T16:14:01.535Z,13.15
2019-04-07T16:16:34.775Z,11.53
2019-04-07T16:19:10.823Z,11.40
2019-04-07T16:21:44.010Z,14.13
2019-04-07T16:24:17.781Z,13.05
2019-04-07T16:26:51.443Z,12.37
2019-04-07T16:29:24.279Z,16.95
2019-04-07T16:31:58.684Z,18.40
2019-04-07T16:34:31.891Z,14.95
2019-04-07T16:37:04.925Z,15.53
2019-04-07T16:39:37.767Z,14.00
2019-04-07T16:42:11.382Z,21.17
2019-04-07T16:44:45.956Z,20.05
2019-04-07T16:47:24.443Z,20.82
2019-04-07T16:49:54.662Z,18.32
2019-04-07T16:52:31.120Z,19.77
2019-04-07T16:55:02.541Z,20.92
2019-04-07T16:57:35.100Z,22.40
2019-04-07T17:00:15.281Z,24.07
2019-04-07T17:02:48.201Z,21.10
2019-04-07T17:05:21.981Z,20.20
2019-04-07T17:07:56.892Z,19.90
2019-04-07T17:10:32.821Z,20.47
2019-04-07T17:13:15.309Z,23.13
2019-04-07T17:15:40.961Z,26.63
2019-04-07T17:18:39.736Z,16.77
2019-04-07T17:21:15.856Z,15.30
2019-04-07T17:23:53.199Z,14.33
2019-04-07T17:26:24.202Z,13.20
2019-04-07T17:28:58.577Z,13.03
2019-04-07T17:31:32.677Z,11.93
2019-04-07T17:34:09.919Z,11.83
2019-04-07T17:36:41.535Z,13.23
2019-04-07T17:39:14.462Z,13.47
2019-04-07T17:41:49.878Z,13.23
2019-04-07T17:44:32.586Z,12.30
2019-04-07T17:47:19.880Z,12.93
2019-04-07T17:50:06.755Z,16.07
2019-04-07T17:52:58.038Z,19.73
2019-04-07T17:55:41.848Z,14.80
2019-04-07T17:58:22.210Z,15.40
2019-04-07T18:01:12.762Z,18.27
2019-04-07T18:03:48.576Z,20.37
2019-04-07T18:06:31.301Z,22.00
2019-04-07T18:09:12.780Z,22.43
2019-04-07T18:12:03.034Z,26.53
2019-04-07T18:14:39.511Z,24.57
2019-04-07T18:17:15.042Z,28.57
2019-04-07T18:20:08.361Z,27.10
2019-04-07T18:22:58.107Z,29.30
2019-04-07T18:25:34.368Z,52.70
2019-04-07T18:28:09.421Z,114.67
2019-04-07T18:31:03.057Z,118.63
2019-04-07T18:33:38.631Z,94.27
2019-04-07T18:36:29.215Z,92.60
2019-04-07T18:39:17.342Z,261.63
2019-04-07T18:42:11.437Z,100.27
2019-04-07T18:44:55.308Z,66.00
2019-04-07T18:47:35.761Z,73.50
2019-04-07T18:50:29.065Z,63.73
2019-04-07T18:53:05.333Z,74.10
2019-04-07T18:55:39.066Z,66.77
2019-04-07T18:58:31.208Z,66.63
2019-04-07T19:01:08.624Z,67.90
2019-04-07T19:03:40.635Z,62.07
2019-04-07T19:06:18.113Z,49.63
2019-04-07T19:08:54.378Z,44.10
2019-04-07T19:11:28.596Z,38.90
2019-04-07T19:14:30.816Z,40.77
2019-04-07T19:16:50.727Z,52.63
2019-04-07T19:19:33.387Z,159.13
2019-04-07T19:22:24.784Z,105.47
2019-04-07T19:25:17.267Z,79.60
2019-04-07T19:28:08.123Z,86.83
2019-04-07T19:30:59.265Z,100.17
2019-04-07T19:33:33.925Z,75.63
2019-04-07T19:36:27.391Z,67.43
2019-04-07T19:39:02.692Z,65.80
2019-04-07T19:41:56.285Z,50.40
2019-04-07T19:44:38.950Z,58.13
2019-04-07T19:47:22.896Z,61.27
2019-04-07T19:50:13.655Z,61.73
2019-04-07T19:53:10.010Z,53.83
2019-04-07T19:55:47.252Z,52.17
2019-04-07T19:58:26.376Z,51.03
2019-04-07T20:01:12.754Z,51.73
2019-04-07T20:03:50.356Z,55.17
2019-04-07T20:06:27.929Z,65.73
2019-04-07T20:09:20.076Z,148.97
2019-04-07T20:11:55.406Z,68.17
2019-04-07T20:14:51.967Z,56.47
2019-04-07T20:17:38.808Z,46.03
2019-04-07T20:20:14.012Z,51.53
2019-04-07T20:23:00.186Z,52.97
2019-04-07T20:25:44.888Z,60.43
2019-04-07T20:28:30.395Z,57.43
2019-04-07T20:31:23.432Z,80.27
2019-04-07T20:34:02.142Z,68.90
2019-04-07T20:36:38.555Z,49.83
2019-04-07T20:39:27.450Z,47.73
2019-04-07T20:42:01.007Z,62.23
2019-04-07T20:44:36.521Z,64.50
2019-04-07T20:47:27.299Z,64.37
2019-04-07T20:50:05.529Z,131.60
2019-04-07T20:52:46.108Z,67.53
2019-04-07T20:55:39.539Z,63.43
2019-04-07T20:58:25.038Z,65.77
2019-04-07T21:01:04.640Z,53.77
2019-04-07T21:03:51.947Z,79.43
2019-04-07T21:06:44.155Z,70.97
2019-04-07T21:09:35.478Z,75.47
2019-04-07T21:12:19.265Z,85.33
2019-04-07T21:15:18.202Z,86.77
2019-04-07T21:17:42.727Z,74.43
2019-04-07T21:20:18.159Z,70.40
2019-04-07T21:22:52.650Z,59.17
2019-04-07T21:25:43.352Z,52.90
2019-04-07T21:28:18.236Z,46.70
2019-04-07T21:30:55.762Z,47.00
2019-04-07T21:33:45.761Z,46.40
2019-04-07T21:36:18.236Z,48.27
2019-04-07T21:38:58.446Z,46.00
2019-04-07T21:41:44.226Z,40.20
2019-04-07T21:44:27.063Z,39.40
2019-04-07T21:47:02.164Z,46.67
2019-04-07T21:49:38.223Z,45.00
2019-04-07T21:52:18.676Z,46.07
2019-04-07T21:55:00.776Z,45.67
2019-04-07T21:57:52.511Z,46.90
2019-04-07T22:00:32.877Z,42.27
2019-04-07T22:03:18.396Z,44.23
2019-04-07T22:06:09.551Z,44.70
2019-04-07T22:08:45.442Z,44.27
2019-04-07T22:11:22.617Z,42.30
2019-04-07T22:13:53.412Z,38.67
2019-04-07T22:16:30.757Z,46.67
2019-04-07T22:19:01.485Z,45.03
2019-04-07T22:21:34.172Z,44.00
2019-04-07T22:24:06.999Z,45.63
2019-04-07T22:26:40.539Z,47.07
2019-04-07T22:29:13.260Z,48.13
2019-04-07T22:31:47.886Z,45.90
2019-04-07T22:34:20.816Z,44.57
2019-04-07T22:36:53.745Z,40.90
2019-04-07T22:39:28.847Z,42.57
2019-04-07T22:42:02.218Z,47.30
2019-04-07T22:44:35.573Z,45.97
2019-04-07T22:47:09.416Z,52.80
2019-04-07T22:49:43.061Z,48.77
2019-04-07T22:52:17.662Z,52.60
2019-04-07T22:54:49.975Z,43.40
2019-04-07T22:57:23.330Z,45.83
2019-04-07T22:59:56.651Z,45.63
2019-04-07T23:02:29.793Z,44.93
2019-04-07T23:05:03.017Z,59.63
2019-04-07T23:07:35.703Z,88.50
2019-04-07T23:10:09.090Z,55.30
2019-04-07T23:12:42.319Z,44.33
2019-04-07T23:15:16.736Z,42.97
2019-04-07T23:17:49.412Z,43.50
2019-04-07T23:20:22.138Z,43.73
2019-04-07T23:22:54.941Z,45.00
2019-04-07T23:25:28.092Z,44.33
2019-04-07T23:28:00.811Z,44.30
2019-04-07T23:30:33.465Z,56.57
2019-04-07T23:33:06.337Z,57.27
2019-04-07T23:35:39.350Z,48.97
2019-04-07T23:38:12.280Z,44.90
2019-04-07T23:40:44.911Z,43.03
2019-04-07T23:43:17.722Z,42.47
2019-04-07T23:45:50.113Z,39.67
2019-04-07T23:48:22.796Z,39.80
2019-04-07T23:50:56.151Z,40.97
2019-04-07T23:54:11.230Z,47.67
2019-04-07T23:56:45.080Z,41.43
2019-04-07T23:59:17.451Z,43.60
